createdAt,value
2023-05-20T00:00:53.325Z,101584.52
2023-05-20T00:03:30.217Z,101578.42
2023-05-20T00:05:59.585Z,101581.92
2023-05-20T00:08:31.252Z,101581.92
2023-05-20T00:11:02.083Z,101574.95
2023-05-20T00:13:31.473Z,101580.19
2023-05-20T00:16:02.548Z,101581.05
2023-05-20T00:18:34.191Z,101572.31
2023-05-20T00:21:03.689Z,101572.31
2023-05-20T00:23:32.987Z,101579.30
2023-05-20T00:26:04.165Z,101569.70
2023-05-20T00:28:37.564Z,101577.55
2023-05-20T00:31:06.748Z,101573.22
2023-05-20T00:33:36.001Z,101579.34
2023-05-20T00:36:07.357Z,101574.09
2023-05-20T00:38:36.893Z,101567.13
2023-05-20T00:41:09.128Z,101570.62
2023-05-20T00:43:40.927Z,101567.12
2023-05-20T00:46:10.601Z,101561.91
2023-05-20T00:48:43.538Z,101565.41
2023-05-20T00:51:17.572Z,101568.00
2023-05-20T00:53:47.571Z,101564.52
2023-05-20T00:56:21.623Z,101560.19
2023-05-20T00:58:53.168Z,101568.02
2023-05-20T01:01:26.635Z,101575.02
2023-05-20T01:03:55.854Z,101572.41
2023-05-20T01:06:25.616Z,101580.26
2023-05-20T01:08:59.896Z,101578.52
2023-05-20T01:11:44.772Z,101575.87
2023-05-20T01:14:20.773Z,101574.16
2023-05-20T01:16:54.423Z,101574.16
2023-05-20T01:19:41.815Z,101582.00
2023-05-20T01:22:12.839Z,101569.78
2023-05-20T01:24:48.192Z,101569.80
2023-05-20T01:27:22.888Z,101580.27
2023-05-20T01:29:53.906Z,101577.67
2023-05-20T01:32:28.607Z,101581.14
2023-05-20T01:34:59.592Z,101582.02
2023-05-20T01:37:30.923Z,101573.30
2023-05-20T01:40:03.566Z,101583.79
2023-05-20T01:42:33.987Z,101578.53
2023-05-20T01:45:04.670Z,101572.42
2023-05-20T01:47:33.719Z,101568.95
2023-05-20T01:50:03.259Z,101567.20
2023-05-20T01:52:32.187Z,101566.34
2023-05-20T01:55:01.657Z,101569.84
2023-05-20T01:57:32.500Z,101556.75
2023-05-20T02:00:03.826Z,101561.97
2023-05-20T02:02:48.836Z,101556.75
2023-05-20T02:05:18.105Z,101558.49
2023-05-20T02:07:49.266Z,101553.24
2023-05-20T02:10:18.521Z,101552.38
2023-05-20T02:12:50.663Z,101553.25
2023-05-20T02:15:21.791Z,101548.91
2023-05-20T02:17:52.772Z,101553.27
2023-05-20T02:20:21.897Z,101553.27
2023-05-20T02:22:55.026Z,101558.50
2023-05-20T02:25:24.550Z,101570.71
2023-05-20T02:27:53.576Z,101561.98
2023-05-20T02:30:24.993Z,101565.47
2023-05-20T02:32:54.147Z,101572.48
2023-05-20T02:35:23.445Z,101565.48
2023-05-20T02:37:54.492Z,101575.09
2023-05-20T02:40:24.490Z,101569.86
2023-05-20T02:42:53.453Z,101574.20
2023-05-20T02:45:22.859Z,101577.72
2023-05-20T02:47:53.802Z,101571.61
2023-05-20T02:50:25.451Z,101568.99
2023-05-20T02:52:57.066Z,101568.99
2023-05-20T02:55:29.258Z,101568.10
2023-05-20T02:57:58.270Z,101568.09
2023-05-20T03:00:34.991Z,101571.61
2023-05-20T03:03:07.518Z,101565.47
2023-05-20T03:05:37.570Z,101566.36
2023-05-20T03:08:14.824Z,101561.98
2023-05-20T03:10:43.800Z,101564.60
2023-05-20T03:13:16.401Z,101569.84
2023-05-20T03:15:45.973Z,101567.22
2023-05-20T03:18:20.127Z,101573.33
2023-05-20T03:20:49.119Z,101572.45
2023-05-20T03:23:20.859Z,101574.20
2023-05-20T03:25:53.526Z,101579.44
2023-05-20T03:28:23.465Z,101575.95
2023-05-20T03:30:52.845Z,101584.67
2023-05-20T03:33:25.622Z,101581.16
2023-05-20T03:35:57.764Z,101567.20
2023-05-20T03:38:31.823Z,101568.95
2023-05-20T03:41:02.280Z,101564.58
2023-05-20T03:43:34.143Z,101574.16
2023-05-20T03:49:11.264Z,101571.55
2023-05-20T03:51:41.015Z,101576.75
2023-05-20T03:54:14.369Z,101572.39
2023-05-20T03:56:49.009Z,101566.24
2023-05-20T03:59:18.511Z,101570.61
2023-05-20T04:01:53.462Z,101569.72
2023-05-20T04:04:24.373Z,101569.71
2023-05-20T04:06:53.878Z,101578.39
2023-05-20T04:09:23.432Z,101572.27
2023-05-20T04:11:55.234Z,101575.73
2023-05-20T04:14:24.620Z,101573.06
2023-05-20T04:16:55.072Z,101570.36
2023-05-20T04:19:34.291Z,101569.42
2023-05-20T04:22:03.736Z,101570.23
2023-05-20T04:24:33.399Z,101573.69
2023-05-20T04:27:06.005Z,101579.76
2023-05-20T04:29:39.154Z,101586.69
2023-05-20T04:32:12.093Z,101580.41
2023-05-20T04:34:42.301Z,101579.47
2023-05-20T04:37:17.683Z,101578.55
2023-05-20T04:39:52.913Z,101581.12
2023-05-20T04:42:22.164Z,101576.73
2023-05-20T04:44:56.415Z,101571.47
2023-05-20T04:47:25.597Z,101575.81
2023-05-20T04:49:58.308Z,101564.44
2023-05-20T04:52:29.570Z,101569.63
2023-05-20T04:55:01.380Z,101566.07
2023-05-20T04:57:34.041Z,101559.87
2023-05-20T05:00:07.189Z,101570.27
2023-05-20T05:02:57.430Z,101569.28
2023-05-20T05:05:27.403Z,101569.13
2023-05-20T05:08:14.007Z,101573.42
2023-05-20T05:10:54.088Z,101570.67
2023-05-20T05:13:31.183Z,101570.59
2023-05-20T05:16:03.427Z,101573.94
2023-05-20T05:18:35.645Z,101568.52
2023-05-20T05:21:07.364Z,101575.38
2023-05-20T05:23:41.998Z,101572.72
2023-05-20T05:26:11.787Z,101578.73
2023-05-20T05:28:49.660Z,101575.06
2023-05-20T05:31:21.750Z,101573.13
2023-05-20T05:33:53.367Z,101577.31
2023-05-20T05:36:25.262Z,101573.67
2023-05-20T05:38:55.395Z,101570.08
2023-05-20T05:41:24.822Z,101573.43
2023-05-20T05:43:58.539Z,101563.66
2023-05-20T05:46:28.959Z,101586.37
2023-05-20T05:49:01.764Z,101584.52
2023-05-20T05:51:33.649Z,101582.64
2023-05-20T05:54:10.159Z,101577.23
2023-05-20T05:56:39.060Z,101577.95
2023-05-20T05:59:08.401Z,101574.23
2023-05-20T06:01:58.336Z,101576.73
2023-05-20T06:04:33.551Z,101575.24
2023-05-20T06:07:03.771Z,101572.06
2023-05-20T06:09:32.744Z,101570.62
2023-05-20T06:12:02.536Z,101571.78
2023-05-20T06:14:32.567Z,101573.70
2023-05-20T06:17:06.411Z,101569.63
2023-05-20T06:19:38.192Z,101569.30
2023-05-20T06:22:10.020Z,101575.29
2023-05-20T06:24:40.315Z,101577.67
2023-05-20T06:27:12.394Z,101575.73
2023-05-20T06:29:46.010Z,101570.31
2023-05-20T06:32:18.806Z,101561.15
2023-05-20T06:34:59.191Z,101567.67
2023-05-20T06:37:28.802Z,101568.98
2023-05-20T06:39:58.052Z,101566.74
2023-05-20T06:42:27.702Z,101561.22
2023-05-20T06:45:10.332Z,101562.53
2023-05-20T06:47:56.698Z,101563.94
2023-05-20T06:50:27.804Z,101557.48
2023-05-20T06:53:05.314Z,101553.48
2023-05-20T06:55:41.004Z,101549.58
2023-05-20T06:58:18.749Z,101548.11
2023-05-20T07:00:48.608Z,101551.61
2023-05-20T07:03:19.604Z,101548.63
2023-05-20T07:05:54.233Z,101553.56
2023-05-20T07:08:23.839Z,101547.28
2023-05-20T07:10:55.788Z,101551.49
2023-05-20T07:13:34.737Z,101550.41
2023-05-20T07:16:11.743Z,101542.55
2023-05-20T07:18:51.276Z,101543.34
2023-05-20T07:21:21.057Z,101541.44
2023-05-20T07:24:09.069Z,101538.89
2023-05-20T07:26:53.506Z,101545.07
2023-05-20T07:29:25.160Z,101550.38
2023-05-20T07:31:55.946Z,101539.59
2023-05-20T07:34:27.627Z,101547.23
2023-05-20T07:36:58.376Z,101541.83
2023-05-20T07:39:27.871Z,101535.44
2023-05-20T07:41:56.756Z,101536.27
2023-05-20T07:44:27.313Z,101536.53
2023-05-20T07:47:06.648Z,101530.85
2023-05-20T07:49:36.513Z,101525.67
2023-05-20T07:52:09.189Z,101522.13
2023-05-20T07:54:43.426Z,101521.54
2023-05-20T07:57:16.746Z,101520.60
2023-05-20T07:59:48.292Z,101521.39
2023-05-20T08:02:25.212Z,101526.20
2023-05-20T08:04:54.857Z,101519.41
2023-05-20T08:07:26.296Z,101521.22
2023-05-20T08:09:56.746Z,101517.43
2023-05-20T08:12:27.913Z,101525.48
2023-05-20T08:14:57.482Z,101527.34
2023-05-20T08:17:26.818Z,101522.91
2023-05-20T08:19:56.344Z,101518.44
2023-05-20T08:22:25.482Z,101525.23
2023-05-20T08:24:54.717Z,101522.41
2023-05-20T08:27:23.806Z,101521.98
2023-05-20T08:29:53.950Z,101519.12
2023-05-20T08:32:24.258Z,101520.48
2023-05-20T08:34:56.630Z,101522.63
2023-05-20T08:37:28.913Z,101520.91
2023-05-20T08:39:59.238Z,101517.52
2023-05-20T08:42:31.000Z,101518.96
2023-05-20T08:45:02.885Z,101515.50
2023-05-20T08:47:36.350Z,101506.05
2023-05-20T08:50:07.059Z,101506.83
2023-05-20T08:52:42.408Z,101499.27
2023-05-20T08:55:26.358Z,101502.75
2023-05-20T08:57:58.330Z,101497.38
2023-05-20T09:00:30.308Z,101500.50
2023-05-20T09:03:03.792Z,101494.73
2023-05-20T09:05:34.649Z,101497.72
2023-05-20T09:08:14.660Z,101495.89
2023-05-20T09:10:43.849Z,101496.70
2023-05-20T09:13:12.704Z,101493.87
2023-05-20T09:15:44.004Z,101488.93
2023-05-20T09:18:14.133Z,101491.70
2023-05-20T09:20:46.712Z,101485.61
2023-05-20T09:23:21.162Z,101490.44
2023-05-20T09:25:52.521Z,101487.85
2023-05-20T09:28:24.556Z,101490.91
2023-05-20T09:31:00.140Z,101484.76
2023-05-20T09:33:29.930Z,101477.14
2023-05-20T09:36:09.050Z,101482.08
2023-05-20T09:38:41.676Z,101476.81
2023-05-20T09:41:12.472Z,101475.94
2023-05-20T09:43:44.622Z,101473.63
2023-05-20T09:46:17.380Z,101476.48
2023-05-20T09:48:46.486Z,101468.45
2023-05-20T09:51:17.618Z,101462.79
2023-05-20T09:53:46.833Z,101468.98
2023-05-20T09:56:22.201Z,101467.98
2023-05-20T09:58:58.073Z,101460.68
2023-05-20T10:01:27.481Z,101457.09
2023-05-20T10:03:57.631Z,101462.61
2023-05-20T10:06:46.435Z,101468.20
2023-05-20T10:09:51.436Z,101456.28
2023-05-20T10:12:29.054Z,101462.56
2023-05-20T10:15:10.653Z,101458.84
2023-05-20T10:17:46.867Z,101460.36
2023-05-20T10:20:18.225Z,101450.96
2023-05-20T10:22:57.124Z,101456.16
2023-05-20T10:25:28.421Z,101448.23
2023-05-20T10:28:09.544Z,101442.33
2023-05-20T10:30:49.470Z,101446.78
2023-05-20T10:33:19.314Z,101445.25
2023-05-20T10:35:51.867Z,101442.77
2023-05-20T10:38:24.415Z,101439.33
2023-05-20T10:40:53.843Z,101434.17
2023-05-20T10:43:28.810Z,101432.20
2023-05-20T10:46:00.210Z,101430.31
2023-05-20T10:48:34.934Z,101424.06
2023-05-20T10:51:05.520Z,101418.82
2023-05-20T10:53:45.956Z,101416.54
2023-05-20T10:56:21.477Z,101418.65
2023-05-20T10:58:55.797Z,101410.55
2023-05-20T11:01:27.041Z,101411.06
2023-05-20T11:03:57.538Z,101412.00
2023-05-20T11:06:28.853Z,101412.54
2023-05-20T11:09:06.234Z,101397.52
2023-05-20T11:11:38.086Z,101392.97
2023-05-20T11:14:07.384Z,101393.33
2023-05-20T11:16:36.640Z,101388.09
2023-05-20T11:19:08.339Z,101393.61
2023-05-20T11:21:44.609Z,101392.64
2023-05-20T11:24:22.914Z,101382.59
2023-05-20T11:26:52.729Z,101386.52
2023-05-20T11:29:21.948Z,101381.89
2023-05-20T11:31:55.665Z,101376.61
2023-05-20T11:34:26.843Z,101379.90
2023-05-20T11:37:00.769Z,101381.69
2023-05-20T11:39:31.226Z,101388.83
2023-05-20T11:42:01.561Z,101385.45
2023-05-20T11:44:33.191Z,101381.41
2023-05-20T11:47:03.817Z,101382.06
2023-05-20T11:49:40.414Z,101378.92
2023-05-20T11:52:12.588Z,101387.25
2023-05-20T11:54:43.580Z,101386.34
2023-05-20T11:57:15.991Z,101384.80
2023-05-20T11:59:51.162Z,101382.92
2023-05-20T12:02:20.560Z,101381.40
2023-05-20T12:04:49.450Z,101372.81
2023-05-20T12:07:18.488Z,101364.98
2023-05-20T12:09:47.297Z,101372.66
2023-05-20T12:12:20.765Z,101364.20
2023-05-20T12:14:50.041Z,101370.66
2023-05-20T12:17:21.675Z,101374.84
2023-05-20T12:19:50.765Z,101366.30
2023-05-20T12:22:20.028Z,101361.80
2023-05-20T12:24:50.029Z,101363.23
2023-05-20T12:27:19.123Z,101371.55
2023-05-20T12:29:48.093Z,101370.36
2023-05-20T12:32:17.664Z,101365.20
2023-05-20T12:34:46.458Z,101368.85
2023-05-20T12:37:16.575Z,101356.39
2023-05-20T12:39:46.148Z,101363.58
2023-05-20T12:42:19.123Z,101366.48
2023-05-20T12:44:49.196Z,101360.24
2023-05-20T12:47:18.360Z,101359.27
2023-05-20T12:49:50.237Z,101352.31
2023-05-20T12:52:22.794Z,101352.05
2023-05-20T12:54:51.923Z,101345.66
2023-05-20T12:57:21.996Z,101342.10
2023-05-20T12:59:51.060Z,101339.43
2023-05-20T13:02:21.265Z,101341.42
2023-05-20T13:04:50.173Z,101327.31
2023-05-20T13:07:19.272Z,101323.70
2023-05-20T13:09:48.169Z,101323.13
2023-05-20T13:12:17.458Z,101324.23
2023-05-20T13:14:46.259Z,101327.27
2023-05-20T13:17:19.092Z,101324.78
2023-05-20T13:19:51.460Z,101329.67
2023-05-20T13:22:22.033Z,101322.94
2023-05-20T13:24:50.912Z,101323.69
2023-05-20T13:27:20.154Z,101326.61
2023-05-20T13:29:49.199Z,101325.89
2023-05-20T13:32:21.101Z,101321.77
2023-05-20T13:34:50.218Z,101316.69
2023-05-20T13:37:19.248Z,101321.24
2023-05-20T13:39:48.980Z,101317.95
2023-05-20T13:42:20.854Z,101314.42
2023-05-20T13:44:51.575Z,101316.23
2023-05-20T13:47:26.767Z,101319.72
2023-05-20T13:49:59.113Z,101318.11
2023-05-20T13:52:29.154Z,101310.73
2023-05-20T13:54:57.976Z,101313.07
2023-05-20T13:57:27.063Z,101317.61
2023-05-20T13:59:55.994Z,101314.39
2023-05-20T14:02:24.864Z,101300.11
2023-05-20T14:04:54.167Z,101304.26
2023-05-20T14:07:23.012Z,101295.22
2023-05-20T14:09:51.973Z,101300.06
2023-05-20T14:12:23.558Z,101292.51
2023-05-20T14:14:53.723Z,101292.02
2023-05-20T14:17:22.844Z,101291.05
2023-05-20T14:19:51.566Z,101288.17
2023-05-20T14:22:23.449Z,101287.22
2023-05-20T14:24:52.226Z,101289.29
2023-05-20T14:27:21.309Z,101281.58
2023-05-20T14:29:50.662Z,101277.53
2023-05-20T14:32:21.083Z,101284.25
2023-05-20T14:34:51.336Z,101285.21
2023-05-20T14:37:23.968Z,101287.84
2023-05-20T14:39:52.866Z,101287.61
2023-05-20T14:42:21.937Z,101284.28
2023-05-20T14:44:54.351Z,101281.92
2023-05-20T14:47:23.784Z,101283.39
2023-05-20T14:49:53.032Z,101276.83
2023-05-20T14:52:22.066Z,101279.66
2023-05-20T14:54:52.052Z,101277.37
2023-05-20T14:57:25.154Z,101277.41
2023-05-20T14:59:54.074Z,101275.55
2023-05-20T15:02:26.944Z,101286.35
2023-05-20T15:04:56.113Z,101280.24
2023-05-20T15:07:25.818Z,101278.44
2023-05-20T15:09:54.799Z,101274.41
2023-05-20T15:12:23.786Z,101282.56
2023-05-20T15:14:52.745Z,101277.78
2023-05-20T15:17:23.347Z,101273.04
2023-05-20T15:19:52.714Z,101270.86
2023-05-20T15:22:22.557Z,101271.20
2023-05-20T15:24:52.803Z,101275.19
2023-05-20T15:27:23.267Z,101276.91
2023-05-20T15:29:55.782Z,101273.53
2023-05-20T15:32:25.266Z,101267.89
2023-05-20T15:34:54.274Z,101267.48
2023-05-20T15:37:23.254Z,101266.09
2023-05-20T15:39:59.609Z,101261.20
2023-05-20T15:42:33.148Z,101266.80
2023-05-20T15:45:02.508Z,101261.89
2023-05-20T15:47:31.800Z,101264.98
2023-05-20T15:50:10.839Z,101258.88
2023-05-20T15:52:40.025Z,101266.25
2023-05-20T15:55:10.986Z,101261.12
2023-05-20T15:57:40.308Z,101254.48
2023-05-20T16:00:11.799Z,101260.86
2023-05-20T16:02:43.642Z,101259.81
2023-05-20T16:05:15.946Z,101259.72
2023-05-20T16:07:46.290Z,101258.25
2023-05-20T16:10:18.283Z,101252.77
2023-05-20T16:12:47.557Z,101254.33
2023-05-20T16:15:22.012Z,101256.89
2023-05-20T16:17:51.199Z,101257.58
2023-05-20T16:20:20.306Z,101253.13
2023-05-20T16:22:49.706Z,101251.41
2023-05-20T16:25:18.604Z,101256.80
2023-05-20T16:27:47.690Z,101250.63
2023-05-20T16:30:20.480Z,101247.18
2023-05-20T16:32:49.825Z,101251.98
2023-05-20T16:35:19.456Z,101253.34
2023-05-20T16:37:48.921Z,101260.13
2023-05-20T16:40:17.882Z,101251.95
2023-05-20T16:42:47.010Z,101256.11
2023-05-20T16:45:20.799Z,101266.28
2023-05-20T16:47:50.268Z,101266.72
2023-05-20T16:50:19.256Z,101265.14
2023-05-20T16:52:48.354Z,101270.62
2023-05-20T16:55:18.207Z,101264.51
2023-05-20T16:57:47.866Z,101266.48
2023-05-20T17:00:20.417Z,101272.13
2023-05-20T17:02:50.185Z,101275.97
2023-05-20T17:05:19.315Z,101280.65
2023-05-20T17:07:49.355Z,101280.98
2023-05-20T17:10:18.276Z,101282.94
2023-05-20T17:12:47.274Z,101285.80
2023-05-20T17:15:19.813Z,101281.73
2023-05-20T17:17:50.073Z,101284.72
2023-05-20T17:20:19.289Z,101283.34
2023-05-20T17:22:48.733Z,101279.27
2023-05-20T17:25:18.205Z,101285.80
2023-05-20T17:27:47.174Z,101287.13
2023-05-20T17:30:21.633Z,101289.36
2023-05-20T17:32:53.846Z,101287.06
2023-05-20T17:35:25.139Z,101289.09
2023-05-20T17:37:54.723Z,101291.09
2023-05-20T17:40:23.760Z,101294.05
2023-05-20T17:42:52.919Z,101294.33
2023-05-20T17:45:30.517Z,101298.13
2023-05-20T17:48:11.663Z,101302.91
2023-05-20T17:50:41.799Z,101294.44
2023-05-20T17:53:15.435Z,101307.05
2023-05-20T17:55:46.882Z,101292.33
2023-05-20T17:58:17.442Z,101299.70
2023-05-20T18:00:47.068Z,101300.05
2023-05-20T18:03:18.633Z,101298.60
2023-05-20T18:05:48.098Z,101299.78
2023-05-20T18:08:23.913Z,101302.71
2023-05-20T18:10:55.316Z,101300.31
2023-05-20T18:13:25.586Z,101298.86
2023-05-20T18:15:56.091Z,101308.87
2023-05-20T18:18:26.905Z,101307.41
2023-05-20T18:20:57.665Z,101304.16
2023-05-20T18:23:27.262Z,101303.59
2023-05-20T18:25:56.927Z,101309.20
2023-05-20T18:28:26.500Z,101317.47
2023-05-20T18:30:57.226Z,101309.89
2023-05-20T18:33:26.788Z,101310.27
2023-05-20T18:35:56.443Z,101310.61
2023-05-20T18:38:26.155Z,101313.58
2023-05-20T18:40:55.747Z,101313.91
2023-05-20T18:43:25.883Z,101323.11
2023-05-20T18:45:55.638Z,101327.77
2023-05-20T18:48:27.369Z,101325.48
2023-05-20T18:50:58.577Z,101319.69
2023-05-20T18:53:27.954Z,101318.16
2023-05-20T18:56:02.133Z,101313.11
2023-05-20T18:58:33.218Z,101315.11
2023-05-20T19:01:02.839Z,101314.53
2023-05-20T19:03:32.717Z,101313.92
2023-05-20T19:06:01.901Z,101316.91
2023-05-20T19:08:32.020Z,101312.69
2023-05-20T19:11:01.238Z,101313.77
2023-05-20T19:13:30.895Z,101307.98
2023-05-20T19:16:00.210Z,101310.86
2023-05-20T19:18:29.780Z,101314.63
2023-05-20T19:20:59.226Z,101313.97
2023-05-20T19:23:28.466Z,101315.04
2023-05-20T19:25:57.502Z,101317.08
2023-05-20T19:28:26.826Z,101317.33
2023-05-20T19:30:55.910Z,101319.30
2023-05-20T19:33:25.762Z,101312.52
2023-05-20T19:35:57.264Z,101325.94
2023-05-20T19:38:26.578Z,101317.42
2023-05-20T19:40:55.684Z,101319.53
2023-05-20T19:43:25.267Z,101315.47
2023-05-20T19:45:54.422Z,101313.97
2023-05-20T19:48:23.903Z,101316.80
2023-05-20T19:50:53.320Z,101317.02
2023-05-20T19:53:23.011Z,101314.52
2023-05-20T19:55:53.055Z,101306.73
2023-05-20T19:58:22.939Z,101318.25
2023-05-20T20:00:52.132Z,101313.12
2023-05-20T20:03:20.972Z,101314.11
2023-05-20T20:05:50.465Z,101308.12
2023-05-20T20:08:19.617Z,101317.92
2023-05-20T20:10:48.943Z,101312.77
2023-05-20T20:13:18.427Z,101312.00
2023-05-20T20:15:47.673Z,101314.70
2023-05-20T20:18:23.143Z,101320.09
2023-05-20T20:20:54.698Z,101312.20
2023-05-20T20:23:27.764Z,101319.29
2023-05-20T20:25:57.284Z,101318.52
2023-05-20T20:28:26.459Z,101322.11
2023-05-20T20:30:55.538Z,101318.69
2023-05-20T20:33:27.177Z,101324.09
2023-05-20T20:35:57.137Z,101318.89
2023-05-20T20:38:26.608Z,101323.38
2023-05-20T20:40:55.628Z,101319.13
2023-05-20T20:43:28.266Z,101317.41
2023-05-20T20:45:59.469Z,101325.39
2023-05-20T20:48:28.876Z,101322.81
2023-05-20T20:50:58.614Z,101322.81
2023-05-20T20:53:27.779Z,101309.62
2023-05-20T20:55:56.615Z,101313.19
2023-05-20T20:58:26.667Z,101308.92
2023-05-20T21:00:55.788Z,101309.03
2023-05-20T21:03:26.125Z,101311.73
2023-05-20T21:05:54.998Z,101309.13
2023-05-20T21:08:27.343Z,101302.15
2023-05-20T21:10:58.810Z,101312.77
2023-05-20T21:13:28.356Z,101304.08
2023-05-20T21:15:58.018Z,101307.67
2023-05-20T21:18:27.355Z,101303.37
2023-05-20T21:20:56.455Z,101299.09
2023-05-20T21:23:25.561Z,101306.21
2023-05-20T21:25:54.635Z,101301.02
2023-05-20T21:28:23.874Z,101305.51
2023-05-20T21:30:52.801Z,101300.35
2023-05-20T21:33:25.278Z,101304.04
2023-05-20T21:35:54.376Z,101298.09
2023-05-20T21:38:25.208Z,101301.75
2023-05-20T21:40:54.241Z,101308.06
2023-05-20T21:43:27.405Z,101311.65
2023-05-20T21:45:58.537Z,101310.91
2023-05-20T21:48:29.366Z,101318.91
2023-05-20T21:51:02.865Z,101311.19
2023-05-20T21:53:32.222Z,101314.22
2023-05-20T21:56:01.429Z,101312.77
2023-05-20T21:58:31.316Z,101315.67
2023-05-20T22:01:03.273Z,101308.06
2023-05-20T22:03:33.161Z,101310.02
2023-05-20T22:06:04.706Z,101315.45
2023-05-20T22:08:33.910Z,101316.46
2023-05-20T22:11:07.549Z,101314.84
2023-05-20T22:13:40.875Z,101318.44
2023-05-20T22:16:10.810Z,101310.67
2023-05-20T22:18:40.268Z,101314.20
2023-05-20T22:21:08.999Z,101315.16
2023-05-20T22:23:38.155Z,101315.27
2023-05-20T22:26:09.549Z,101323.23
2023-05-20T22:28:38.663Z,101311.95
2023-05-20T22:31:08.086Z,101308.50
2023-05-20T22:33:40.893Z,101312.09
2023-05-20T22:36:09.900Z,101321.81
2023-05-20T22:38:38.998Z,101314.00
2023-05-20T22:41:08.168Z,101312.33
2023-05-20T22:43:37.719Z,101321.16
2023-05-20T22:46:06.994Z,101325.55
2023-05-20T22:48:36.297Z,101309.94
2023-05-20T22:51:06.265Z,101317.08
2023-05-20T22:53:35.543Z,101314.61
2023-05-20T22:56:07.857Z,101315.55
2023-05-20T22:58:39.242Z,101313.84
2023-05-20T23:01:08.354Z,101312.98
2023-05-20T23:03:37.887Z,101311.30
2023-05-20T23:06:06.903Z,101306.97
2023-05-20T23:08:37.130Z,101305.28
2023-05-20T23:11:06.177Z,101310.61
2023-05-20T23:13:35.503Z,101303.67
2023-05-20T23:16:06.045Z,101307.25
2023-05-20T23:18:35.189Z,101304.67
2023-05-20T23:21:04.185Z,101306.47
2023-05-20T23:23:33.422Z,101310.83
2023-05-20T23:26:02.510Z,101305.58
2023-05-20T23:28:31.950Z,101305.61
2023-05-20T23:31:00.813Z,101305.61
2023-05-20T23:33:31.026Z,101310.89
2023-05-20T23:36:00.039Z,101311.77
2023-05-20T23:38:31.918Z,101310.92
2023-05-20T23:41:01.022Z,101307.45
2023-05-20T23:43:30.177Z,101305.70
2023-05-20T23:46:02.600Z,101309.23
2023-05-20T23:48:35.470Z,101304.89
2023-05-20T23:51:04.749Z,101299.67
2023-05-20T23:53:35.907Z,101305.81
2023-05-20T23:56:07.250Z,101311.05
2023-05-20T23:58:36.470Z,101304.97
